SARL/AOL METAR and TAF weather

Enter ICAO airport designator
Station Type Date Time Source
SARL METAR 2020/09/22 04:00 UTC NOAA

SARL 220400Z 11004KT CAVOK 11/05 Q1023


Station Type Date Time Source
SARL Decoded METAR 2020/09/22 04:00 UTC NOAA

Paso De Los Libres Aerodrome, Argentina (SARL) 29-41S 057-09W 70M
Sep 22, 2020 - 12:00 AM EDT / 2020.09.22 0400 UTC
Wind: from the ESE (110 degrees) at 5 MPH (4 KT):0
Visibility: greater than 7 mile(s):0
Temperature: 51 F (11 C)
Dew Point: 41 F (5 C)
Relative Humidity: 66%
Pressure (altimeter): 30.21 in. Hg (1023 hPa)
ob: SARL 220400Z 11004KT CAVOK 11/05 Q1023
cycle: 4

Station Type Date Time Source
SARL TAF UTC NOAA

Error!

Example: see airport list